Time;durP1;ratioP1;P1;durP2;ratioP2;P2;SDS_P1;SDS_P2;PMS_P1;PMS_P2;Temp;Humidity;BMP_temperature;BMP_pressure;BME280_temperature;BME280_humidity;BME280_pressure;Samples;Min_cycle;Max_cycle;Signal;HPM_P1;HPM_P2
2022/05/11 00:01:30;;;;;;;4.10;2.47;;;;;;;14.73;55.15;99779.78;5028727;28;20221;-53
2022/05/11 00:03:57;;;;;;;5.13;2.20;;;;;;;14.72;56.26;99798.13;5028726;28;20212;-54
2022/05/11 00:06:25;;;;;;;3.20;2.00;;;;;;;14.79;55.71;99791.72;5028459;28;20212;-55
2022/05/11 00:08:54;;;;;;;4.30;2.40;;;;;;;14.75;56.40;99793.63;5028541;28;20565;-54
2022/05/11 00:11:21;;;;;;;2.33;1.93;;;;;;;14.74;56.59;99788.47;5028525;28;20197;-53
2022/05/11 00:13:48;;;;;;;4.43;2.27;;;;;;;14.81;55.69;99777.69;5028486;28;20201;-53
2022/05/11 00:16:15;;;;;;;4.33;2.50;;;;;;;14.84;56.27;99787.16;5038305;28;20203;-54
2022/05/11 00:18:42;;;;;;;4.70;2.60;;;;;;;14.90;56.24;99784.28;5048215;28;20197;-54
2022/05/11 00:21:10;;;;;;;3.30;2.60;;;;;;;14.72;56.87;99783.31;5048377;28;20601;-54
2022/05/11 00:23:38;;;;;;;5.03;2.43;;;;;;;14.56;57.86;99786.63;5048048;28;20645;-54
2022/05/11 00:26:06;;;;;;;4.47;2.10;;;;;;;14.57;58.12;99786.53;5048301;28;20613;-54
2022/05/11 00:28:33;;;;;;;3.73;2.53;;;;;;;14.58;57.83;99776.94;5048261;28;20193;-54
2022/05/11 00:31:01;;;;;;;2.50;2.30;;;;;;;14.71;57.35;99785.97;5048469;28;20567;-55
2022/05/11 00:33:28;;;;;;;2.57;2.03;;;;;;;14.66;58.05;99787.94;5047959;28;20199;-55
2022/05/11 00:35:56;;;;;;;2.93;2.63;;;;;;;14.41;59.47;99757.59;5047388;28;20647;-53
2022/05/11 00:38:26;;;;;;;4.77;2.40;;;;;;;14.44;60.46;99780.97;5047928;28;20193;-53
2022/05/11 00:40:57;;;;;;;5.43;2.53;;;;;;;14.31;61.33;99787.56;5047889;28;20247;-53
2022/05/11 00:43:31;;;;;;;3.73;2.37;;;;;;;14.15;62.42;99776.03;5048153;28;20200;-54
2022/05/11 00:46:14;;;;;;;5.20;2.50;;;;;;;13.92;64.09;99789.94;5047905;28;20200;-54
2022/05/11 00:51:33;;;;;;;3.33;2.23;;;;;;;13.50;66.10;99752.44;5047907;28;20196;-54
2022/05/11 00:54:01;;;;;;;3.70;2.23;;;;;;;13.60;67.52;99782.47;5047947;28;20380;-54
2022/05/11 00:56:28;;;;;;;3.63;2.40;;;;;;;13.55;68.23;99784.41;5047621;28;20204;-55
2022/05/11 00:59:02;;;;;;;2.73;2.53;;;;;;;13.51;69.36;99786.28;5047732;28;20754;-55
2022/05/11 01:01:29;;;;;;;3.70;2.23;;;;;;;13.39;70.00;99784.97;5047499;28;20227;-55
2022/05/11 01:04:02;;;;;;;2.33;2.13;;;;;;;13.40;70.96;99789.28;5047570;28;20208;-55
2022/05/11 01:06:32;;;;;;;2.83;2.50;;;;;;;13.28;71.93;99776.69;5047644;28;20193;-54
2022/05/11 01:08:59;;;;;;;3.57;2.90;;;;;;;13.29;72.60;99777.53;5047622;28;20754;-54
2022/05/11 01:11:26;;;;;;;5.97;3.13;;;;;;;13.32;72.48;99777.41;5047287;28;20197;-53
2022/05/11 01:13:54;;;;;;;4.83;3.10;;;;;;;13.34;72.23;99762.56;5047472;28;20193;-55
2022/05/11 01:16:22;;;;;;;7.10;3.27;;;;;;;13.38;71.77;99772.84;5047641;28;20638;-55
2022/05/11 01:18:49;;;;;;;5.43;3.13;;;;;;;13.31;72.42;99771.38;5048027;28;20201;-56
2022/05/11 01:21:16;;;;;;;5.77;3.03;;;;;;;13.23;73.47;99770.78;5047337;28;20773;-54
2022/05/11 01:23:48;;;;;;;5.07;3.07;;;;;;;13.12;74.51;99775.47;5047360;28;20196;-54
2022/05/11 01:26:18;;;;;;;7.73;3.53;;;;;;;13.08;73.69;99785.19;5047257;28;20236;-53
2022/05/11 01:28:47;;;;;;;8.67;4.10;;;;;;;13.07;73.22;99774.81;5047208;28;20197;-54
2022/05/11 01:31:16;;;;;;;8.00;3.73;;;;;;;13.11;71.99;99781.59;5047486;28;20586;-56
2022/05/11 01:33:46;;;;;;;6.33;4.23;;;;;;;12.78;72.13;99731.50;5047324;28;20669;-56
2022/05/11 01:36:21;;;;;;;7.93;3.97;;;;;;;13.13;71.16;99778.94;5047254;28;20203;-53
2022/05/11 01:38:51;;;;;;;7.27;4.50;;;;;;;13.07;70.96;99778.25;5047284;28;20673;-54
2022/05/11 01:41:23;;;;;;;6.47;4.20;;;;;;;12.98;70.88;99782.94;5047059;28;20311;-54
2022/05/11 01:43:51;;;;;;;10.03;4.43;;;;;;;12.82;70.87;99766.97;5047273;28;20196;-53
2022/05/11 01:46:19;;;;;;;7.87;4.20;;;;;;;12.88;70.75;99782.38;5046236;28;20595;-53
2022/05/11 01:48:46;;;;;;;8.07;4.30;;;;;;;12.93;70.61;99784.84;5046697;28;20205;-53
2022/05/11 01:51:13;;;;;;;7.17;4.20;;;;;;;12.87;70.44;99770.25;5047037;28;20201;-54
2022/05/11 01:53:41;;;;;;;7.63;4.90;;;;;;;12.95;70.63;99778.69;5047280;28;20715;-53
2022/05/11 01:56:09;;;;;;;11.20;5.03;;;;;;;12.95;70.88;99773.47;5047017;28;20203;-53
2022/05/11 01:58:38;;;;;;;10.33;4.77;;;;;;;12.89;71.35;99784.09;5046765;28;20196;-54
2022/05/11 02:01:05;;;;;;;9.43;5.30;;;;;;;12.63;72.29;99750.28;5047336;28;20224;-53
2022/05/11 02:03:32;;;;;;;8.20;4.90;;;;;;;12.65;73.61;99788.34;5046606;28;20199;-54
2022/05/11 02:08:45;;;;;;;8.67;5.13;;;;;;;12.62;74.94;99791.09;5046882;28;20723;-56
2022/05/11 02:11:13;;;;;;;9.20;5.03;;;;;;;12.64;74.39;99804.06;5047078;28;20605;-55
2022/05/11 02:13:43;;;;;;;8.13;5.43;;;;;;;12.45;75.58;99782.94;5046809;28;20193;-56
2022/05/11 02:16:10;;;;;;;8.07;4.90;;;;;;;12.43;76.89;99794.31;5046786;28;20245;-55
2022/05/11 02:18:37;;;;;;;7.77;5.10;;;;;;;12.36;77.82;99793.66;5046548;28;20196;-54
2022/05/11 02:21:04;;;;;;;5.87;4.90;;;;;;;12.25;79.40;99788.78;5046899;28;20224;-55
2022/05/11 02:23:31;;;;;;;9.47;5.17;;;;;;;12.27;79.92;99793.97;5046581;28;20200;-55
2022/05/11 02:25:58;;;;;;;10.67;5.63;;;;;;;12.13;81.90;99789.16;5046524;28;20229;-55
2022/05/11 02:28:25;;;;;;;11.77;5.97;;;;;;;12.22;81.96;99795.84;5046423;28;20210;-54
2022/05/11 02:30:56;;;;;;;12.47;5.33;;;;;;;12.21;82.92;99794.97;5046500;28;20209;-54
2022/05/11 02:33:24;;;;;;;10.87;5.23;;;;;;;12.17;83.70;99795.16;5046606;28;20207;-53
2022/05/11 02:35:52;;;;;;;10.50;5.00;;;;;;;12.09;84.80;99786.69;5046482;28;20205;-53
2022/05/11 02:38:22;;;;;;;11.97;5.03;;;;;;;12.02;85.85;99777.38;5046372;28;20277;-55
2022/05/11 02:40:51;;;;;;;12.60;5.60;;;;;;;12.03;86.24;99769.53;5046480;28;20192;-54
2022/05/11 02:43:18;;;;;;;12.13;4.93;;;;;;;12.03;87.15;99774.75;5046729;28;20253;-55
2022/05/11 02:45:46;;;;;;;11.80;4.70;;;;;;;12.01;87.25;99781.75;5046368;28;20201;-54
2022/05/11 02:48:17;;;;;;;6.93;5.43;;;;;;;12.03;87.53;99779.94;5046498;28;20193;-53
2022/05/11 02:50:46;;;;;;;12.00;6.20;;;;;;;12.00;87.87;99774.81;5046495;28;20200;-53
2022/05/11 02:53:14;;;;;;;10.97;5.97;;;;;;;12.10;87.29;99781.44;5046617;28;20634;-53
2022/05/11 02:55:43;;;;;;;10.67;5.80;;;;;;;12.15;87.06;99778.72;5046097;28;20201;-54
2022/05/11 02:58:10;;;;;;;11.10;5.83;;;;;;;12.12;87.59;99784.00;5047400;28;20681;-54
2022/05/11 03:00:39;;;;;;;8.73;5.53;;;;;;;12.11;87.59;99779.69;5049771;28;20245;-54
2022/05/11 03:03:07;;;;;;;8.63;5.80;;;;;;;12.19;86.78;99786.38;5049762;28;20598;-54
2022/05/11 03:05:35;;;;;;;8.50;5.70;;;;;;;12.28;85.43;99772.25;5032155;28;20202;-54
2022/05/11 03:08:02;;;;;;;12.57;6.17;;;;;;;12.48;84.82;99792.41;5017383;28;20213;-53
2022/05/11 03:10:29;;;;;;;12.27;5.97;;;;;;;12.57;84.05;99779.09;5023060;28;20596;-53
2022/05/11 03:12:56;;;;;;;12.27;6.63;;;;;;;12.63;83.43;99786.72;5029650;28;20190;-53
2022/05/11 03:15:23;;;;;;;9.33;5.57;;;;;;;12.66;83.38;99787.47;5029595;28;20578;-54
2022/05/11 03:17:50;;;;;;;9.63;6.17;;;;;;;12.71;83.33;99784.72;5029250;28;20201;-55
2022/05/11 03:20:21;;;;;;;7.33;5.80;;;;;;;12.63;83.32;99790.19;5015538;28;20208;-55
2022/05/11 03:22:50;;;;;;;12.03;5.87;;;;;;;12.68;83.23;99785.66;5018056;28;20220;-56
2022/05/11 03:25:18;;;;;;;7.30;4.83;;;;;;;12.72;82.95;99786.41;5020064;28;20662;-56
2022/05/11 03:27:44;;;;;;;6.43;5.93;;;;;;;12.72;83.04;99787.28;5029254;28;20288;-55
2022/05/11 03:30:13;;;;;;;9.27;5.93;;;;;;;12.68;83.46;99790.00;5029306;28;20208;-60
2022/05/11 03:35:24;;;;;;;6.10;5.50;;;;;;;12.68;83.56;99797.81;5029148;28;20588;-55
2022/05/11 03:37:52;;;;;;;12.60;7.73;;;;;;;12.59;84.60;99805.94;5029124;28;20291;-55
2022/05/11 03:40:20;;;;;;;12.17;8.53;;;;;;;12.66;84.53;99802.22;5029189;28;20319;-55
2022/05/11 03:42:47;;;;;;;14.50;9.20;;;;;;;12.69;84.77;99802.13;5025413;28;20218;-55
2022/05/11 03:45:16;;;;;;;19.17;8.20;;;;;;;12.80;84.16;99801.78;5016722;28;20647;-53
2022/05/11 03:47:45;;;;;;;13.27;8.17;;;;;;;12.77;85.37;99799.28;5009114;28;20198;-53
2022/05/11 03:50:12;;;;;;;19.77;9.00;;;;;;;13.43;83.39;99801.38;5009492;28;20209;-57
2022/05/11 03:52:39;;;;;;;10.33;7.23;;;;;;;14.63;76.00;99798.50;5009068;28;20338;-56
2022/05/11 03:55:10;;;;;;;9.87;5.87;;;;;;;15.65;69.30;99800.22;5008989;28;20202;-56
2022/05/11 03:57:38;;;;;;;7.47;5.93;;;;;;;16.49;63.65;99810.22;5011454;28;20202;-57
2022/05/11 04:00:08;;;;;;;7.10;5.70;;;;;;;17.17;60.33;99794.63;5018362;28;20205;-56
2022/05/11 04:02:35;;;;;;;11.33;7.23;;;;;;;18.26;55.76;99817.69;5016536;28;20220;-57
2022/05/11 04:05:03;;;;;;;9.50;6.43;;;;;;;19.44;51.32;99817.81;5017106;28;20205;-57
2022/05/11 04:07:30;;;;;;;13.17;6.23;;;;;;;20.64;47.56;99818.19;5019321;28;20281;-57
2022/05/11 04:09:57;;;;;;;6.25;5.53;;;;;;;21.76;44.17;99815.91;5017098;28;20545;-57
2022/05/11 04:12:27;;;;;;;5.63;5.13;;;;;;;22.54;42.25;99814.69;5018075;28;20186;-56
2022/05/11 04:14:54;;;;;;;7.47;5.50;;;;;;;23.32;40.35;99827.38;5008678;28;20206;-57
2022/05/11 04:17:21;;;;;;;5.75;5.10;;;;;;;23.99;38.54;99820.34;5008747;28;20206;-57
2022/05/11 04:19:48;;;;;;;6.28;4.93;;;;;;;24.29;37.80;99821.53;5009252;28;20589;-57
2022/05/11 04:22:15;;;;;;;6.72;5.65;;;;;;;24.79;36.52;99828.03;5008863;28;20218;-58
2022/05/11 04:24:42;;;;;;;8.60;5.60;;;;;;;25.03;35.67;99822.53;5008786;28;20198;-57
2022/05/11 04:27:10;;;;;;;10.43;5.30;;;;;;;25.10;35.58;99835.16;5015006;28;20226;-54
2022/05/11 04:29:39;;;;;;;7.75;5.43;;;;;;;25.74;34.77;99829.69;5016787;28;20189;-54
2022/05/11 04:32:07;;;;;;;10.20;6.63;;;;;;;26.06;34.17;99818.09;5018451;28;20618;-55
2022/05/11 04:34:34;;;;;;;13.02;7.38;;;;;;;26.49;33.41;99841.75;5016644;28;20275;-54
2022/05/11 04:37:01;;;;;;;10.07;9.07;;;;;;;26.69;32.62;99844.28;5016520;28;20315;-54
2022/05/11 04:39:28;;;;;;;14.10;8.95;;;;;;;26.99;32.15;99850.50;5018658;28;20197;-54
2022/05/11 04:41:55;;;;;;;18.83;10.80;;;;;;;27.33;31.64;99853.53;5015906;28;20623;-54
2022/05/11 04:44:22;;;;;;;10.23;9.23;;;;;;;28.30;30.04;99849.63;5016603;28;20204;-55
2022/05/11 04:46:51;;;;;;;9.60;6.78;;;;;;;28.68;29.19;99837.84;5017840;28;20200;-54
2022/05/11 04:49:19;;;;;;;9.65;6.40;;;;;;;29.21;28.40;99855.72;5016453;28;20190;-56
2022/05/11 04:51:47;;;;;;;15.40;9.10;;;;;;;29.40;28.24;99850.22;5015999;28;20337;-56
2022/05/11 04:54:14;;;;;;;14.45;7.45;;;;;;;29.44;28.29;99851.59;5011879;28;20202;-57
2022/05/11 04:56:41;;;;;;;15.15;9.15;;;;;;;29.67;28.02;99854.59;5026799;28;20727;-56
2022/05/11 04:59:08;;;;;;;10.10;7.15;;;;;;;30.51;27.21;99861.81;5014944;28;20209;-57
2022/05/11 05:01:36;;;;;;;12.02;5.97;;;;;;;31.08;26.25;99844.00;5008580;28;20247;-57
2022/05/11 05:04:06;;;;;;;7.15;6.03;;;;;;;31.16;25.91;99854.75;5008482;28;20198;-57
2022/05/11 05:06:33;;;;;;;8.35;7.50;;;;;;;30.62;26.51;99869.59;5007790;28;20198;-56
2022/05/11 05:09:00;;;;;;;8.98;6.22;;;;;;;31.00;26.19;99857.44;5007849;28;20198;-57
2022/05/11 05:11:27;;;;;;;10.73;6.80;;;;;;;30.97;26.30;99861.25;5012624;28;20202;-58
2022/05/11 05:13:54;;;;;;;9.75;5.53;;;;;;;30.72;26.68;99856.03;5016485;28;20239;-56
2022/05/11 05:16:21;;;;;;;8.73;5.22;;;;;;;30.82;26.37;99862.06;5027866;28;20606;-55
2022/05/11 05:18:48;;;;;;;5.70;4.47;;;;;;;30.85;26.33;99859.91;5027352;28;20306;-56
2022/05/11 05:21:17;;;;;;;12.15;4.70;;;;;;;31.03;26.06;99860.63;5027385;28;20216;-56
2022/05/11 05:23:43;;;;;;;7.70;4.90;;;;;;;31.36;25.65;99857.97;5027249;28;20644;-55
2022/05/11 05:26:10;;;;;;;5.15;4.70;;;;;;;31.57;25.19;99863.63;5027330;28;20235;-55
2022/05/11 05:31:22;;;;;;;7.07;4.85;;;;;;;31.86;25.05;99870.28;5027799;28;20208;-55
2022/05/11 05:33:55;;;;;;;9.18;4.78;;;;;;;32.45;24.08;99861.69;5027662;28;20589;-55
2022/05/11 05:36:23;;;;;;;6.63;4.25;;;;;;;32.64;23.95;99868.47;5026860;28;20687;-58
2022/05/11 05:38:50;;;;;;;7.07;4.38;;;;;;;32.39;24.52;99873.13;5010353;28;20210;-55
2022/05/11 05:41:17;;;;;;;12.48;4.68;;;;;;;30.95;25.62;99870.47;5018099;28;20299;-55
2022/05/11 05:43:44;;;;;;;5.75;3.85;;;;;;;31.94;24.83;99872.97;5017240;28;20217;-56
2022/05/11 05:46:11;;;;;;;5.43;3.90;;;;;;;32.40;24.36;99879.34;5015696;28;20190;-57
2022/05/11 05:48:38;;;;;;;4.50;4.20;;;;;;;32.92;23.70;99881.44;5018456;28;20301;-57
2022/05/11 05:51:06;;;;;;;5.90;4.30;;;;;;;33.33;23.19;99876.56;5017931;28;20206;-56
2022/05/11 05:53:35;;;;;;;8.07;4.63;;;;;;;31.72;24.63;99879.88;5015991;28;20690;-56
2022/05/11 05:56:02;;;;;;;8.30;4.03;;;;;;;29.58;26.88;99877.75;5008682;28;20206;-56
2022/05/11 05:58:29;;;;;;;9.75;4.53;;;;;;;28.07;29.26;99870.50;5007457;28;20277;-56
2022/05/11 06:00:56;;;;;;;6.22;4.47;;;;;;;26.62;31.53;99868.97;5007319;28;20230;-56
2022/05/11 06:03:25;;;;;;;7.55;4.07;;;;;;;25.16;33.86;99871.84;5007273;28;20225;-56
2022/05/11 06:05:52;;;;;;;6.35;4.80;;;;;;;24.33;35.61;99871.59;5007577;28;20589;-56
2022/05/11 06:08:20;;;;;;;6.25;4.50;;;;;;;23.84;36.37;99869.28;5007399;28;20277;-55
2022/05/11 06:10:49;;;;;;;5.22;4.72;;;;;;;23.24;37.92;99870.34;5007072;28;20202;-55
2022/05/11 06:13:20;;;;;;;5.50;4.28;;;;;;;22.73;39.29;99867.09;5014889;28;20608;-54
2022/05/11 06:15:47;;;;;;;5.47;4.95;;;;;;;21.86;41.01;99878.59;5011646;28;20985;-54
2022/05/11 06:18:14;;;;;;;8.63;4.78;;;;;;;21.59;42.15;99881.31;5007348;28;20597;-55
2022/05/11 06:20:41;;;;;;;8.65;4.57;;;;;;;21.60;42.41;99877.75;5013657;28;20252;-54
2022/05/11 06:23:08;;;;;;;8.00;4.18;;;;;;;21.54;42.21;99878.16;5016829;28;20707;-54
2022/05/11 06:25:38;;;;;;;5.28;3.65;;;;;;;21.48;42.43;99875.09;5006757;28;20243;-53
2022/05/11 06:28:07;;;;;;;3.83;3.47;;;;;;;21.78;41.88;99880.09;5007004;28;20580;-54
2022/05/11 06:30:35;;;;;;;8.32;4.07;;;;;;;21.78;42.11;99877.44;5006966;28;20209;-54
2022/05/11 06:33:03;;;;;;;6.10;4.28;;;;;;;21.61;42.91;99883.88;5026262;28;20594;-53
2022/05/11 06:35:31;;;;;;;5.40;3.60;;;;;;;21.57;42.67;99854.16;5023741;28;20198;-53
2022/05/11 06:38:02;;;;;;;11.60;3.70;;;;;;;21.62;42.78;99872.34;5028981;28;20201;-54
2022/05/11 06:40:31;;;;;;;7.05;3.80;;;;;;;21.46;43.59;99874.34;5029711;28;20215;-53
2022/05/11 06:42:58;;;;;;;7.28;3.67;;;;;;;21.25;43.99;99871.34;5017070;28;20617;-53
2022/05/11 06:45:27;;;;;;;7.03;3.72;;;;;;;21.54;43.77;99872.88;5011060;28;20247;-53
2022/05/11 06:47:54;;;;;;;4.80;3.33;;;;;;;21.81;42.39;99875.41;5023772;28;20703;-54
2022/05/11 06:50:24;;;;;;;6.40;3.03;;;;;;;22.34;40.43;99876.97;5019080;28;20285;-53
2022/05/11 06:52:50;;;;;;;4.38;3.17;;;;;;;22.83;38.92;99869.94;5017682;28;20290;-54
2022/05/11 07:00:48;;;;;;;9.23;3.58;;;;;;;26.19;32.66;99877.19;5019953;28;20193;-55
2022/05/11 07:03:15;;;;;;;8.82;3.70;;;;;;;27.25;30.54;99875.59;5018006;28;20740;-55
2022/05/11 07:05:42;;;;;;;6.18;3.30;;;;;;;27.88;30.05;99870.56;5018017;28;20288;-54
2022/05/11 07:08:10;;;;;;;6.20;3.25;;;;;;;27.89;29.87;99877.56;5019441;28;20208;-54
2022/05/11 07:10:38;;;;;;;4.18;2.88;;;;;;;28.36;28.62;99875.72;5026649;28;20663;-53
2022/05/11 07:13:05;;;;;;;5.57;3.08;;;;;;;28.55;27.91;99872.13;5029468;28;20198;-54
2022/05/11 07:15:32;;;;;;;3.67;3.35;;;;;;;28.63;27.34;99874.88;5027205;28;20198;-55
2022/05/11 07:18:03;;;;;;;7.93;3.50;;;;;;;29.41;26.64;99872.44;5023671;28;20293;-55
2022/05/11 07:20:34;;;;;;;8.25;2.65;;;;;;;29.50;26.56;99872.34;5019056;28;20233;-54
2022/05/11 07:23:02;;;;;;;4.47;2.60;;;;;;;28.98;26.45;99874.06;5018109;28;20225;-54
2022/05/11 07:25:30;;;;;;;3.55;3.00;;;;;;;28.97;26.81;99866.22;5017190;28;20231;-54
2022/05/11 07:27:59;;;;;;;4.38;2.90;;;;;;;29.31;26.25;99871.69;5017681;28;20198;-55
2022/05/11 07:30:30;;;;;;;3.63;3.33;;;;;;;29.69;26.09;99859.75;5017614;28;20198;-54
2022/05/11 07:32:57;;;;;;;3.90;3.42;;;;;;;30.41;26.22;99861.13;5017775;28;20247;-54
2022/05/11 07:35:25;;;;;;;6.07;3.97;;;;;;;31.31;25.08;99863.81;5017773;28;20292;-54
2022/05/11 07:37:52;;;;;;;4.97;4.47;;;;;;;31.44;24.32;99839.16;5019053;28;20193;-54
2022/05/11 07:40:21;;;;;;;8.50;4.25;;;;;;;31.84;23.88;99861.56;5017754;28;20230;-54
2022/05/11 07:42:48;;;;;;;5.25;2.67;;;;;;;31.60;23.88;99860.59;5016981;28;20221;-53
2022/05/11 07:45:17;;;;;;;9.13;8.23;;;;;;;30.92;23.93;99860.94;5015495;28;20191;-54
2022/05/11 07:47:44;;;;;;;5.95;5.38;;;;;;;31.05;24.02;99847.84;5017316;28;20254;-57
2022/05/11 07:50:14;;;;;;;3.65;2.67;;;;;;;31.58;23.87;99859.94;5014808;28;20205;-58
2022/05/11 07:52:44;;;;;;;3.35;3.05;;;;;;;31.41;23.77;99863.63;5011967;28;20193;-58
2022/05/11 07:55:11;;;;;;;5.82;2.80;;;;;;;31.89;23.68;99854.69;5018769;28;20690;-57
2022/05/11 08:00:23;;;;;;;4.65;2.78;;;;;;;33.06;22.41;99851.06;5017824;28;20201;-58
2022/05/11 08:02:50;;;;;;;8.65;3.80;;;;;;;33.42;22.55;99853.94;5016599;28;20255;-57
2022/05/11 08:05:18;;;;;;;4.53;3.15;;;;;;;33.33;22.02;99841.59;5016865;28;20387;-58
2022/05/11 08:07:49;;;;;;;2.92;2.55;;;;;;;33.63;21.69;99851.41;5017048;28;20201;-58
2022/05/11 08:10:21;;;;;;;3.40;2.65;;;;;;;33.76;21.29;99848.91;5013996;28;20190;-58
2022/05/11 08:12:49;;;;;;;7.13;2.75;;;;;;;33.47;21.93;99846.19;5016697;28;20196;-58
2022/05/11 08:15:17;;;;;;;7.78;2.75;;;;;;;33.48;21.61;99842.47;5022875;28;20201;-57
2022/05/11 08:17:46;;;;;;;5.43;2.70;;;;;;;32.90;20.99;99845.81;5025297;28;20208;-57
2022/05/11 08:20:16;;;;;;;4.53;2.30;;;;;;;32.67;21.39;99840.38;5018868;28;20213;-57
2022/05/11 08:22:44;;;;;;;4.05;2.60;;;;;;;32.02;21.78;99838.03;5017416;28;20201;-56
2022/05/11 08:25:14;;;;;;;3.50;2.50;;;;;;;31.82;21.91;99831.41;5018065;28;20275;-57
2022/05/11 08:27:41;;;;;;;4.07;2.70;;;;;;;31.64;22.56;99836.97;5018507;28;20638;-57
2022/05/11 08:35:40;;;;;;;3.22;3.03;;;;;;;30.57;22.75;99831.75;5018099;28;20251;-54
2022/05/11 08:38:08;;;;;;;6.57;3.25;;;;;;;29.94;23.49;99829.44;5016819;28;20288;-54
2022/05/11 08:40:46;;;;;;;4.63;2.83;;;;;;;29.47;23.34;99824.50;5016290;28;20280;-54
2022/05/11 08:43:15;;;;;;;2.92;2.60;;;;;;;29.33;24.30;99822.41;5016992;28;20240;-55
2022/05/11 08:45:56;;;;;;;8.43;3.40;;;;;;;29.42;24.52;99824.16;5017748;28;20196;-54
2022/05/11 08:48:36;;;;;;;8.82;3.15;;;;;;;29.45;24.11;99826.53;5016617;28;20208;-54
2022/05/11 08:51:06;;;;;;;5.93;3.28;;;;;;;29.41;24.21;99824.31;5018105;28;20616;-54
2022/05/11 08:53:38;;;;;;;3.90;2.60;;;;;;;29.67;23.82;99818.97;5017685;28;20694;-54
2022/05/11 08:56:15;;;;;;;4.80;2.90;;;;;;;29.75;22.76;99822.50;5016014;28;20205;-59
2022/05/11 08:58:48;;;;;;;7.53;3.15;;;;;;;29.49;23.30;99822.53;5017627;28;20209;-58
2022/05/11 09:01:29;;;;;;;3.88;2.70;;;;;;;29.19;23.06;99823.81;5017791;28;20723;-58
2022/05/11 09:03:59;;;;;;;6.13;3.10;;;;;;;29.22;23.70;99817.31;5017640;28;20210;-56
2022/05/11 09:06:28;;;;;;;8.25;3.70;;;;;;;29.21;23.78;99815.63;5016593;28;20200;-58
2022/05/11 09:08:56;;;;;;;5.68;2.90;;;;;;;29.35;24.03;99812.38;5015289;28;20190;-57
2022/05/11 09:11:28;;;;;;;6.82;3.35;;;;;;;29.94;23.30;99813.38;5017103;28;20196;-57
2022/05/11 09:13:58;;;;;;;5.65;2.85;;;;;;;30.22;23.00;99814.88;5022230;28;20643;-57
2022/05/11 09:16:27;;;;;;;9.50;4.00;;;;;;;30.41;23.17;99812.91;5016965;28;20234;-58
2022/05/11 09:18:56;;;;;;;6.45;4.13;;;;;;;30.64;22.73;99824.72;5025311;28;20829;-58
2022/05/11 09:21:30;;;;;;;3.00;2.80;;;;;;;30.33;22.63;99816.41;5008402;28;20285;-59
2022/05/11 09:24:08;;;;;;;5.43;3.30;;;;;;;30.65;22.98;99821.88;5023366;28;20212;-58
2022/05/11 09:26:39;;;;;;;5.15;4.75;;;;;;;30.62;22.58;99816.00;5017354;28;20755;-58
2022/05/11 09:29:19;;;;;;;7.72;4.72;;;;;;;30.63;23.12;99801.59;5016170;28;20201;-58
2022/05/11 09:31:47;;;;;;;7.22;3.47;;;;;;;30.79;22.89;99812.34;5017562;28;20278;-58
2022/05/11 09:34:24;;;;;;;11.15;6.10;;;;;;;31.05;23.19;99806.78;5017519;28;20210;-58
2022/05/11 09:36:56;;;;;;;8.70;4.60;;;;;;;31.12;22.61;99820.41;5016791;28;20200;-58
2022/05/11 09:39:27;;;;;;;3.40;3.10;;;;;;;31.20;22.26;99809.69;5017424;28;20219;-56
2022/05/11 09:42:01;;;;;;;6.88;3.70;;;;;;;31.23;21.89;99806.66;5017170;28;20643;-58
2022/05/11 09:44:40;;;;;;;4.47;3.50;;;;;;;31.36;22.19;99804.31;5016906;28;20231;-58
2022/05/11 09:47:27;;;;;;;3.88;3.58;;;;;;;30.36;22.70;99789.31;5014135;28;20270;-54
2022/05/11 09:49:54;;;;;;;5.78;3.33;;;;;;;30.39;22.63;99801.50;5017983;28;20198;-54
2022/05/11 09:52:39;;;;;;;6.53;3.47;;;;;;;30.63;22.77;99804.28;5015211;28;20285;-54
2022/05/11 09:55:18;;;;;;;8.60;4.55;;;;;;;30.50;22.80;99785.13;5017135;28;20725;-53
2022/05/11 09:57:59;;;;;;;4.22;3.30;;;;;;;30.39;22.74;99798.84;5021100;28;20204;-53
2022/05/11 10:00:35;;;;;;;4.93;3.83;;;;;;;30.05;23.60;99791.72;5025687;28;20198;-54
2022/05/11 10:03:06;;;;;;;6.95;4.07;;;;;;;29.23;24.23;99768.19;5038909;28;20277;-54
2022/05/11 10:05:39;;;;;;;6.63;3.85;;;;;;;29.51;24.48;99787.59;5015239;28;20669;-55
2022/05/11 10:08:15;;;;;;;6.75;4.07;;;;;;;29.41;24.43;99790.38;5021979;28;20227;-54
2022/05/11 10:10:48;;;;;;;4.65;3.67;;;;;;;29.16;24.49;99786.66;5029757;28;20205;-55
2022/05/11 10:13:24;;;;;;;5.95;4.05;;;;;;;29.20;24.31;99784.53;5029063;28;20704;-55
2022/05/11 10:21:53;;;;;;;7.43;3.83;;;;;;;28.24;25.59;99777.28;5029676;28;20637;-55
2022/05/11 10:24:52;;;;;;;6.32;4.50;;;;;;;27.75;26.36;99769.53;5026068;28;20706;-58
2022/05/11 10:27:29;;;;;;;4.43;4.05;;;;;;;27.71;27.26;99768.16;5019911;28;20201;-58
2022/05/11 10:30:06;;;;;;;4.70;3.75;;;;;;;27.55;26.89;99762.59;5019394;28;20206;-58
2022/05/11 10:32:48;;;;;;;9.05;3.90;;;;;;;27.31;27.45;99765.75;5020645;28;20194;-54
2022/05/11 10:35:19;;;;;;;5.07;3.95;;;;;;;27.25;27.55;99760.97;5019879;28;20691;-54
2022/05/11 10:38:09;;;;;;;3.60;3.30;;;;;;;26.87;28.49;99756.53;5017087;28;20236;-55
2022/05/11 10:40:54;;;;;;;4.22;3.55;;;;;;;26.71;28.59;99733.16;5014311;28;21090;-54
2022/05/11 10:43:37;;;;;;;3.95;3.65;;;;;;;26.60;28.94;99746.59;5018841;28;20202;-54
2022/05/11 10:46:13;;;;;;;6.55;3.15;;;;;;;26.47;28.88;99730.06;5014437;28;20287;-54
2022/05/11 10:48:56;;;;;;;5.63;3.67;;;;;;;26.35;29.24;99744.50;5011687;28;20266;-54
2022/05/11 10:51:39;;;;;;;5.22;4.30;;;;;;;26.42;29.80;99742.09;5009531;28;20298;-54
2022/05/11 10:54:14;;;;;;;5.28;4.50;;;;;;;26.67;29.59;99739.72;5014876;28;20208;-54
2022/05/11 10:56:51;;;;;;;5.78;3.83;;;;;;;26.61;29.56;99734.97;5018831;28;20225;-53
2022/05/11 10:59:32;;;;;;;5.10;4.30;;;;;;;26.63;29.64;99726.84;5018034;28;20206;-54
2022/05/11 11:02:27;;;;;;;5.00;3.70;;;;;;;26.59;29.58;99723.63;5027292;28;20209;-54
2022/05/11 11:05:03;;;;;;;4.57;4.07;;;;;;;26.63;29.34;99719.72;5028776;28;20267;-54
2022/05/11 11:07:39;;;;;;;8.07;3.55;;;;;;;26.74;29.81;99722.22;5028768;28;20204;-55
2022/05/11 11:10:24;;;;;;;5.15;4.65;;;;;;;26.79;28.61;99731.59;5028892;28;20197;-53
2022/05/11 11:13:10;;;;;;;6.90;4.35;;;;;;;26.48;29.91;99713.13;5028682;28;20292;-54
2022/05/11 11:15:41;;;;;;;5.13;4.72;;;;;;;26.63;29.26;99705.56;5026547;28;20204;-55
2022/05/11 11:18:13;;;;;;;6.57;4.28;;;;;;;26.56;30.71;99715.91;5028068;28;20209;-52
2022/05/11 11:20:43;;;;;;;6.07;4.22;;;;;;;26.42;30.33;99715.47;5028216;28;20284;-56
2022/05/11 11:23:13;;;;;;;5.28;4.03;;;;;;;26.45;31.04;99720.53;5019850;28;20647;-53
2022/05/11 11:25:48;;;;;;;4.82;4.00;;;;;;;26.39;29.33;99711.31;5021302;28;20671;-54
2022/05/11 11:28:16;;;;;;;5.80;3.50;;;;;;;26.52;30.44;99711.03;5027479;28;20295;-54
2022/05/11 11:31:04;;;;;;;8.88;4.28;;;;;;;26.49;31.14;99695.31;5028212;28;20211;-52
2022/05/11 11:33:34;;;;;;;9.20;5.05;;;;;;;26.60;29.62;99714.66;5027939;28;20205;-54
2022/05/11 11:36:03;;;;;;;5.93;3.75;;;;;;;26.62;29.18;99712.69;5028414;28;20651;-53
2022/05/11 11:38:45;;;;;;;5.50;4.57;;;;;;;26.75;29.51;99713.22;5028290;28;20197;-54
2022/05/11 11:41:15;;;;;;;6.65;4.80;;;;;;;27.02;29.56;99717.84;5028018;28;20198;-54
2022/05/11 11:43:52;;;;;;;6.28;4.15;;;;;;;27.11;29.83;99714.31;5028159;28;20288;-53
2022/05/11 11:46:34;;;;;;;5.38;4.10;;;;;;;26.97;29.64;99716.59;5028118;28;20236;-53
2022/05/11 11:49:06;;;;;;;5.07;4.57;;;;;;;26.91;29.74;99709.13;5028182;28;20201;-53
2022/05/11 11:51:54;;;;;;;6.85;4.07;;;;;;;26.63;30.03;99705.56;5027969;28;20229;-55
2022/05/11 11:54:36;;;;;;;7.47;3.83;;;;;;;26.33;30.56;99703.88;5028176;28;20663;-53
2022/05/11 11:57:05;;;;;;;4.28;4.05;;;;;;;26.53;30.08;99694.88;5028104;28;20678;-53
2022/05/11 11:59:42;;;;;;;10.10;5.22;;;;;;;26.80;30.27;99682.66;5027949;28;20288;-53
2022/05/11 12:02:23;;;;;;;7.60;4.47;;;;;;;26.93;29.28;99683.25;5025774;28;20201;-53
2022/05/11 12:05:02;;;;;;;8.48;4.68;;;;;;;27.24;28.91;99679.34;5021142;28;20217;-53
2022/05/11 12:16:01;;;;;;;14.52;13.10;;;;;;;26.98;29.82;99672.97;5019409;28;20320;-53
2022/05/11 12:18:31;;;;;;;10.70;5.35;;;;;;;27.14;29.33;99672.38;5022899;28;20197;-54
2022/05/11 12:21:01;;;;;;;6.55;3.95;;;;;;;27.14;29.38;99662.56;5016804;28;20240;-59
2022/05/11 12:23:33;;;;;;;12.65;5.20;;;;;;;27.23;29.85;99664.34;5016775;28;20270;-54
2022/05/11 12:26:04;;;;;;;8.18;5.75;;;;;;;27.03;30.48;99636.09;5021364;28;20324;-54